createdAt,value
2018-03-17T00:01:16.910Z,12.23
2018-03-17T00:03:45.299Z,12.70
2018-03-17T00:06:13.612Z,10.63
2018-03-17T00:08:41.952Z,16.13
2018-03-17T00:11:10.276Z,11.93
2018-03-17T00:13:38.600Z,12.40
2018-03-17T00:16:06.925Z,15.43
2018-03-17T00:18:35.267Z,14.37
2018-03-17T00:21:03.547Z,9.60
2018-03-17T00:23:31.877Z,19.23
2018-03-17T00:26:00.185Z,12.07
2018-03-17T00:28:28.512Z,17.03
2018-03-17T00:30:56.834Z,11.50
2018-03-17T00:33:25.159Z,12.73
2018-03-17T00:35:53.472Z,13.63
2018-03-17T00:38:22.288Z,25.43
2018-03-17T00:40:50.639Z,18.57
2018-03-17T00:43:18.970Z,19.03
2018-03-17T00:45:47.260Z,21.23
2018-03-17T00:48:15.581Z,16.73
2018-03-17T00:50:43.936Z,17.87
2018-03-17T00:53:12.260Z,15.93
2018-03-17T00:55:40.564Z,14.23
2018-03-17T00:58:08.907Z,22.73
2018-03-17T01:00:37.231Z,11.60
2018-03-17T01:03:05.549Z,18.43
2018-03-17T01:05:34.720Z,14.17
2018-03-17T01:08:03.023Z,12.60
2018-03-17T01:10:31.348Z,23.87
2018-03-17T01:12:59.676Z,17.13
2018-03-17T01:15:27.994Z,16.83
2018-03-17T01:17:58.126Z,15.43
2018-03-17T01:20:26.433Z,16.53
2018-03-17T01:22:54.793Z,12.83
2018-03-17T01:25:23.095Z,20.47
2018-03-17T01:27:52.206Z,18.00
2018-03-17T01:30:20.505Z,17.50
2018-03-17T01:32:48.860Z,16.33
2018-03-17T01:35:17.195Z,18.83
2018-03-17T01:37:45.521Z,10.07
2018-03-17T01:40:13.873Z,21.60
2018-03-17T01:42:42.189Z,25.33
2018-03-17T01:45:11.287Z,17.63
2018-03-17T01:47:39.625Z,19.50
2018-03-17T01:50:08.022Z,23.93
2018-03-17T01:52:36.448Z,27.00
2018-03-17T01:55:04.772Z,22.97
2018-03-17T01:57:33.092Z,19.17
2018-03-17T02:00:01.436Z,23.73
2018-03-17T02:02:29.753Z,18.87
2018-03-17T02:04:58.087Z,18.33
2018-03-17T02:07:27.160Z,14.27
2018-03-17T02:09:55.481Z,18.73
2018-03-17T02:12:23.799Z,23.87
2018-03-17T02:14:53.025Z,18.80
2018-03-17T02:17:21.335Z,26.00
2018-03-17T02:19:49.682Z,15.63
2018-03-17T02:22:18.022Z,15.10
2018-03-17T02:24:47.241Z,12.93
2018-03-17T02:27:15.567Z,14.33
2018-03-17T02:29:43.873Z,19.50
2018-03-17T02:32:12.216Z,17.80
2018-03-17T02:34:40.638Z,14.10
2018-03-17T02:37:09.279Z,15.37
2018-03-17T02:39:37.665Z,15.37
2018-03-17T02:42:06.024Z,15.57
2018-03-17T02:44:34.339Z,38.47
2018-03-17T02:47:02.652Z,20.37
2018-03-17T02:49:31.004Z,19.90
2018-03-17T02:51:59.359Z,14.90
2018-03-17T02:54:28.390Z,23.47
2018-03-17T02:56:56.757Z,20.47
2018-03-17T02:59:25.072Z,18.13
2018-03-17T03:01:53.434Z,15.93
2018-03-17T03:04:21.758Z,21.93
2018-03-17T03:06:50.086Z,18.40
2018-03-17T03:09:19.064Z,21.53
2018-03-17T03:11:47.351Z,16.20
2018-03-17T03:14:15.678Z,24.83
2018-03-17T03:16:44.020Z,19.93
2018-03-17T03:19:12.365Z,16.30
2018-03-17T03:21:40.673Z,27.97
2018-03-17T03:24:09.012Z,21.10
2018-03-17T03:26:37.347Z,32.93
2018-03-17T03:29:05.689Z,29.30
2018-03-17T03:31:34.013Z,19.57
2018-03-17T03:34:02.324Z,22.07
2018-03-17T03:36:30.646Z,20.67
2018-03-17T03:38:58.973Z,13.23
2018-03-17T03:41:27.327Z,21.30
2018-03-17T03:43:55.657Z,20.13
2018-03-17T03:46:23.975Z,14.73
2018-03-17T03:48:53.167Z,17.17
2018-03-17T03:51:21.520Z,15.23
2018-03-17T03:53:49.883Z,21.17
2018-03-17T03:56:18.188Z,16.40
2018-03-17T03:58:46.504Z,15.10
2018-03-17T04:01:14.821Z,15.13
2018-03-17T04:03:43.153Z,14.07
2018-03-17T04:06:11.490Z,15.10
2018-03-17T04:08:39.825Z,17.23
2018-03-17T04:11:08.175Z,24.03
2018-03-17T04:13:37.242Z,22.83
2018-03-17T04:16:05.572Z,22.13
2018-03-17T04:18:33.911Z,21.87
2018-03-17T04:21:02.748Z,14.97
2018-03-17T04:23:31.069Z,20.90
2018-03-17T04:25:59.393Z,9.73
2018-03-17T04:28:27.710Z,15.47
2018-03-17T04:30:56.036Z,18.53
2018-03-17T04:33:24.378Z,12.43
2018-03-17T04:35:52.759Z,12.93
2018-03-17T04:38:21.067Z,15.33
2018-03-17T04:40:49.360Z,10.93
2018-03-17T04:43:17.689Z,12.03
2018-03-17T04:45:46.016Z,13.97
2018-03-17T04:48:15.105Z,10.33
2018-03-17T04:50:43.437Z,11.83
2018-03-17T04:53:11.754Z,8.43
2018-03-17T04:55:40.070Z,12.40
2018-03-17T04:58:08.413Z,14.00
2018-03-17T05:00:36.722Z,10.80
2018-03-17T05:03:05.052Z,9.70
2018-03-17T05:05:33.772Z,13.27
2018-03-17T05:08:02.088Z,11.00
2018-03-17T05:10:30.436Z,11.63
2018-03-17T05:12:58.750Z,12.60
2018-03-17T05:15:27.093Z,19.00
2018-03-17T05:17:55.468Z,12.00
2018-03-17T05:20:23.780Z,12.77
2018-03-17T05:22:52.128Z,13.47
2018-03-17T05:25:20.472Z,11.80
2018-03-17T05:27:48.791Z,11.70
2018-03-17T05:30:17.110Z,7.77
2018-03-17T05:32:45.444Z,10.70
2018-03-17T05:35:13.896Z,10.23
2018-03-17T05:37:42.220Z,14.13
2018-03-17T05:40:10.554Z,8.30
2018-03-17T05:42:38.982Z,9.60
2018-03-17T05:45:07.298Z,11.77
2018-03-17T05:47:35.821Z,7.40
2018-03-17T05:50:04.164Z,10.47
2018-03-17T05:52:32.496Z,18.53
2018-03-17T05:55:00.846Z,12.10
2018-03-17T05:57:29.160Z,7.70
2018-03-17T05:59:57.521Z,12.00
2018-03-17T06:02:25.852Z,13.43
2018-03-17T06:04:54.188Z,13.87
2018-03-17T06:07:22.517Z,13.20
2018-03-17T06:09:50.849Z,10.37
2018-03-17T06:12:19.196Z,12.30
2018-03-17T06:14:47.525Z,16.73
2018-03-17T06:17:16.106Z,15.60
2018-03-17T06:19:44.413Z,25.67
2018-03-17T06:22:12.939Z,18.10
2018-03-17T06:24:41.277Z,18.90
2018-03-17T06:27:09.880Z,27.50
2018-03-17T06:29:38.205Z,22.03
2018-03-17T06:32:06.541Z,24.90
2018-03-17T06:34:35.451Z,21.43
2018-03-17T06:37:03.766Z,26.27
2018-03-17T06:39:32.092Z,27.23
2018-03-17T06:42:00.422Z,21.43
2018-03-17T06:44:28.818Z,25.17
2018-03-17T06:46:57.120Z,24.63
2018-03-17T06:49:25.455Z,19.07
2018-03-17T06:51:53.837Z,18.00
2018-03-17T06:54:22.189Z,22.57
2018-03-17T06:56:50.516Z,20.77
2018-03-17T06:59:18.939Z,21.00
2018-03-17T07:01:47.258Z,19.87
2018-03-17T07:04:15.602Z,23.03
2018-03-17T07:06:44.036Z,22.70
2018-03-17T07:09:12.387Z,29.70
2018-03-17T07:11:40.754Z,25.90
2018-03-17T07:14:09.210Z,30.20
2018-03-17T07:16:37.565Z,25.50
2018-03-17T07:19:05.935Z,25.00
2018-03-17T07:21:34.228Z,28.00
2018-03-17T07:24:02.631Z,34.30
2018-03-17T07:26:31.070Z,34.13
2018-03-17T07:28:59.409Z,48.30
2018-03-17T07:31:27.876Z,42.73
2018-03-17T07:33:56.218Z,42.10
2018-03-17T07:36:24.564Z,48.87
2018-03-17T07:38:52.920Z,47.40
2018-03-17T07:41:21.365Z,45.77
2018-03-17T07:43:49.984Z,49.37
2018-03-17T07:46:19.304Z,60.23
2018-03-17T07:48:47.916Z,75.10
2018-03-17T07:51:16.357Z,58.77
2018-03-17T07:53:44.889Z,86.80
2018-03-17T07:56:14.267Z,67.23
2018-03-17T07:58:42.671Z,68.33
2018-03-17T08:01:11.050Z,67.87
2018-03-17T08:03:39.552Z,64.50
2018-03-17T08:06:07.878Z,56.07
2018-03-17T08:08:36.292Z,71.97
2018-03-17T08:11:04.646Z,69.07
2018-03-17T08:13:33.026Z,61.60
2018-03-17T08:16:01.430Z,65.90
2018-03-17T08:18:29.784Z,60.53
2018-03-17T08:21:00.457Z,71.27
2018-03-17T08:23:28.937Z,67.93
2018-03-17T08:25:57.339Z,64.63
2018-03-17T08:28:25.753Z,73.77
2018-03-17T08:30:54.193Z,67.50
2018-03-17T08:33:22.604Z,73.33
2018-03-17T08:35:50.983Z,67.60
2018-03-17T08:38:19.371Z,64.33
2018-03-17T08:40:47.751Z,71.30
2018-03-17T08:43:16.326Z,70.73
2018-03-17T08:45:44.699Z,78.20
2018-03-17T08:48:13.096Z,60.93
2018-03-17T08:50:41.520Z,69.23
2018-03-17T08:53:28.332Z,72.73
2018-03-17T08:55:56.677Z,60.83
2018-03-17T08:58:25.037Z,70.97
2018-03-17T09:00:53.809Z,65.73
2018-03-17T09:03:22.200Z,60.97
2018-03-17T09:05:51.066Z,63.13
2018-03-17T09:08:19.453Z,66.63
2018-03-17T09:10:50.994Z,69.27
2018-03-17T09:13:19.473Z,66.30
2018-03-17T09:15:48.730Z,70.87
2018-03-17T09:18:19.165Z,82.50
2018-03-17T09:20:47.582Z,73.33
2018-03-17T09:23:15.952Z,76.27
2018-03-17T09:25:44.373Z,70.97
2018-03-17T09:28:12.695Z,64.57
2018-03-17T09:30:41.500Z,58.17
2018-03-17T09:33:09.881Z,64.67
2018-03-17T09:35:38.341Z,60.67
2018-03-17T09:38:06.704Z,76.97
2018-03-17T09:40:36.270Z,64.60
2018-03-17T09:43:04.720Z,67.57
2018-03-17T09:45:33.229Z,69.17
2018-03-17T09:48:01.664Z,69.83
2018-03-17T09:50:30.650Z,61.23
2018-03-17T09:52:59.179Z,64.93
2018-03-17T09:55:27.611Z,65.00
2018-03-17T09:57:55.957Z,61.13
2018-03-17T10:00:24.430Z,57.60
2018-03-17T10:02:53.625Z,69.87
2018-03-17T10:05:22.394Z,68.10
2018-03-17T10:07:50.859Z,81.30
2018-03-17T10:10:20.203Z,75.60
2018-03-17T10:12:48.674Z,78.17
2018-03-17T10:15:17.772Z,71.27
2018-03-17T10:17:46.252Z,69.93
2018-03-17T10:20:14.619Z,68.10
2018-03-17T10:22:43.377Z,70.97
2018-03-17T10:25:11.734Z,70.83
2018-03-17T10:27:40.243Z,86.37
2018-03-17T10:30:08.729Z,64.70
2018-03-17T10:32:37.306Z,92.40
2018-03-17T10:35:05.706Z,96.00
2018-03-17T10:37:34.425Z,80.47
2018-03-17T10:40:03.030Z,97.63
2018-03-17T10:42:31.508Z,96.00
2018-03-17T10:44:59.940Z,87.43
2018-03-17T10:47:28.402Z,95.13
2018-03-17T10:49:56.828Z,101.60
2018-03-17T10:52:25.642Z,122.63
2018-03-17T10:54:54.108Z,107.87
2018-03-17T10:57:22.460Z,115.93
2018-03-17T10:59:50.920Z,115.83
2018-03-17T11:02:22.021Z,135.17
2018-03-17T11:04:50.502Z,135.83
2018-03-17T11:07:19.772Z,114.53
2018-03-17T11:09:48.753Z,148.40
2018-03-17T11:12:17.634Z,154.90
2018-03-17T11:14:45.986Z,135.70
2018-03-17T11:17:14.397Z,151.77
2018-03-17T11:19:43.257Z,148.57
2018-03-17T11:22:12.435Z,146.17
2018-03-17T11:24:40.930Z,160.17
2018-03-17T11:27:09.930Z,148.83
2018-03-17T11:29:38.323Z,158.90
2018-03-17T11:34:39.203Z,135.17
2018-03-17T11:37:07.673Z,143.73
2018-03-17T11:39:36.231Z,162.47
2018-03-17T11:42:04.866Z,143.73
2018-03-17T11:44:33.469Z,134.50
2018-03-17T11:47:02.236Z,147.30
2018-03-17T11:49:30.635Z,163.97
2018-03-17T11:51:59.058Z,157.70
2018-03-17T11:54:27.451Z,153.77
2018-03-17T11:56:56.116Z,132.97
2018-03-17T11:59:24.704Z,154.80
2018-03-17T12:01:53.205Z,130.50
2018-03-17T12:04:25.595Z,152.43
2018-03-17T12:06:54.052Z,133.20
2018-03-17T12:09:23.183Z,143.50
2018-03-17T12:11:51.661Z,129.47
2018-03-17T12:14:20.462Z,117.87
2018-03-17T12:16:48.842Z,115.93
2018-03-17T12:19:17.302Z,97.03
2018-03-17T12:21:45.668Z,93.00
2018-03-17T12:24:14.006Z,94.87
2018-03-17T12:26:42.476Z,95.90
2018-03-17T12:29:11.027Z,100.73
2018-03-17T12:31:39.943Z,107.27
2018-03-17T12:34:08.383Z,102.03
2018-03-17T12:36:36.825Z,112.93
2018-03-17T12:39:05.229Z,116.70
2018-03-17T12:41:33.605Z,96.80
2018-03-17T12:44:02.030Z,98.13
2018-03-17T12:46:30.467Z,115.50
2018-03-17T12:48:58.861Z,108.77
2018-03-17T12:51:27.350Z,108.67
2018-03-17T12:53:55.750Z,103.83
2018-03-17T12:56:24.114Z,105.20
2018-03-17T12:58:52.525Z,83.47
2018-03-17T13:01:21.445Z,94.83
2018-03-17T13:03:53.639Z,105.47
2018-03-17T13:06:22.109Z,86.10
2018-03-17T13:08:50.994Z,108.77
2018-03-17T13:11:19.634Z,104.60
2018-03-17T13:13:48.072Z,118.77
2018-03-17T13:16:16.981Z,141.43
2018-03-17T13:18:46.521Z,123.23
2018-03-17T13:21:15.005Z,108.63
2018-03-17T13:23:43.375Z,105.20
2018-03-17T13:26:11.822Z,96.87
2018-03-17T13:28:40.290Z,82.97
2018-03-17T13:31:09.062Z,83.77
2018-03-17T13:33:37.675Z,85.60
2018-03-17T13:36:18.289Z,79.60
2018-03-17T13:38:46.759Z,69.73
2018-03-17T13:41:17.451Z,80.33
2018-03-17T13:43:45.896Z,70.63
2018-03-17T13:46:14.585Z,77.07
2018-03-17T13:48:42.945Z,71.63
2018-03-17T13:51:11.439Z,61.13
2018-03-17T13:53:39.776Z,66.40
2018-03-17T13:56:08.120Z,78.40
2018-03-17T14:01:10.057Z,59.03
2018-03-17T14:03:38.618Z,60.30
2018-03-17T14:06:07.938Z,68.73
2018-03-17T14:08:36.458Z,61.77
2018-03-17T14:11:04.855Z,63.77
2018-03-17T14:13:34.052Z,64.43
2018-03-17T14:16:02.457Z,52.13
2018-03-17T14:18:30.885Z,59.70
2018-03-17T14:20:59.347Z,59.20
2018-03-17T14:23:27.695Z,68.63
2018-03-17T14:25:56.066Z,56.97
2018-03-17T14:28:25.150Z,56.57
2018-03-17T14:30:53.508Z,58.70
2018-03-17T14:33:21.945Z,47.33
2018-03-17T14:35:50.575Z,54.97
2018-03-17T14:38:19.043Z,58.47
2018-03-17T14:40:47.460Z,77.17
2018-03-17T14:43:15.828Z,63.30
2018-03-17T14:45:44.305Z,52.43
2018-03-17T14:48:14.359Z,63.03
2018-03-17T14:50:43.504Z,51.37
2018-03-17T14:53:11.853Z,50.40
2018-03-17T14:55:40.464Z,57.43
2018-03-17T14:58:08.951Z,57.93
2018-03-17T15:00:37.319Z,47.73
2018-03-17T15:03:05.879Z,56.60
2018-03-17T15:05:34.358Z,78.87
2018-03-17T15:08:02.878Z,56.00
2018-03-17T15:10:31.339Z,62.17
2018-03-17T15:12:59.931Z,49.73
2018-03-17T15:15:28.272Z,46.20
2018-03-17T15:17:56.636Z,45.70
2018-03-17T15:20:24.972Z,43.83
2018-03-17T15:22:53.402Z,49.10
2018-03-17T15:25:21.739Z,46.67
2018-03-17T15:27:50.570Z,62.57
2018-03-17T15:30:18.904Z,50.53
2018-03-17T15:32:47.662Z,46.83
2018-03-17T15:35:16.077Z,59.60
2018-03-17T15:37:44.411Z,50.80
2018-03-17T15:40:14.076Z,54.53
2018-03-17T15:42:42.427Z,62.60
2018-03-17T15:45:10.821Z,53.33
2018-03-17T15:47:40.078Z,52.10
2018-03-17T15:50:08.463Z,52.23
2018-03-17T15:52:36.838Z,43.67
2018-03-17T15:55:10.067Z,47.13
2018-03-17T15:57:40.774Z,52.70
2018-03-17T16:00:09.339Z,49.97
2018-03-17T16:02:37.977Z,54.63
2018-03-17T16:05:06.412Z,43.40
2018-03-17T16:10:09.289Z,54.30
2018-03-17T16:12:37.749Z,40.50
2018-03-17T16:15:06.127Z,50.80
2018-03-17T16:17:34.500Z,48.47
2018-03-17T16:20:04.490Z,40.27
2018-03-17T16:22:33.406Z,42.80
2018-03-17T16:25:01.870Z,42.63
2018-03-17T16:27:30.303Z,49.87
2018-03-17T16:29:58.624Z,49.97
2018-03-17T16:32:27.069Z,60.03
2018-03-17T16:34:59.831Z,51.80
2018-03-17T16:37:28.170Z,42.20
2018-03-17T16:39:57.267Z,40.57
2018-03-17T16:42:26.042Z,58.90
2018-03-17T16:44:54.418Z,44.40
2018-03-17T16:47:26.350Z,40.93
2018-03-17T16:49:55.260Z,48.07
2018-03-17T16:52:23.650Z,41.27
2018-03-17T16:54:52.610Z,45.13
2018-03-17T16:57:25.273Z,47.87
2018-03-17T17:04:58.585Z,44.97
2018-03-17T17:07:26.929Z,48.67
2018-03-17T17:12:27.810Z,39.47
2018-03-17T17:14:56.295Z,45.00
2018-03-17T17:17:25.662Z,46.27
2018-03-17T17:19:54.029Z,38.67
2018-03-17T17:24:56.590Z,44.53
2018-03-17T17:27:25.026Z,51.87
2018-03-17T17:29:53.476Z,42.57
2018-03-17T17:37:27.609Z,43.97
2018-03-17T17:39:56.045Z,41.77
2018-03-17T17:42:25.124Z,43.13
2018-03-17T17:47:26.020Z,42.70
2018-03-17T17:49:58.195Z,43.50
2018-03-17T17:52:26.623Z,42.77
2018-03-17T17:54:55.021Z,49.07
2018-03-17T18:02:28.786Z,61.10
2018-03-17T18:04:57.202Z,45.50
2018-03-17T18:07:25.784Z,44.63
2018-03-17T18:09:55.300Z,41.90
2018-03-17T18:12:23.653Z,43.60
2018-03-17T18:14:52.459Z,48.17
2018-03-17T18:17:21.678Z,54.03
2018-03-17T18:19:50.021Z,62.30
2018-03-17T18:22:18.628Z,60.77
2018-03-17T18:24:47.104Z,50.97
2018-03-17T18:27:15.535Z,57.17
2018-03-17T18:29:43.976Z,51.63
2018-03-17T18:32:12.345Z,57.57
2018-03-17T18:34:40.821Z,55.83
2018-03-17T18:37:09.316Z,55.73
2018-03-17T18:39:38.433Z,53.22
2018-03-17T18:44:39.309Z,55.70
2018-03-17T18:47:07.633Z,56.70
2018-03-17T18:49:35.965Z,47.10
2018-03-17T18:52:04.268Z,55.73
2018-03-17T18:54:32.585Z,56.83
2018-03-17T18:57:00.896Z,59.47
2018-03-17T18:59:29.216Z,47.20
2018-03-17T19:01:57.545Z,60.23
2018-03-17T19:04:25.863Z,63.70
2018-03-17T19:06:54.192Z,59.30
2018-03-17T19:09:22.516Z,63.47
2018-03-17T19:11:50.833Z,63.27
2018-03-17T19:14:19.145Z,56.00
2018-03-17T19:16:47.468Z,55.47
2018-03-17T19:19:15.776Z,58.00
2018-03-17T19:21:44.116Z,64.30
2018-03-17T19:24:12.415Z,58.70
2018-03-17T19:26:40.752Z,54.13
2018-03-17T19:29:09.092Z,57.60
2018-03-17T19:31:37.430Z,61.63
2018-03-17T19:34:05.744Z,53.67
2018-03-17T19:36:34.056Z,58.27
2018-03-17T19:39:02.372Z,52.47
2018-03-17T19:41:30.694Z,51.47
2018-03-17T19:43:59.007Z,58.63
2018-03-17T19:46:27.320Z,59.27
2018-03-17T19:48:55.642Z,58.90
2018-03-17T19:51:23.976Z,66.53
2018-03-17T19:53:52.290Z,59.27
2018-03-17T19:56:20.717Z,49.43
2018-03-17T19:58:50.946Z,50.63
2018-03-17T20:01:19.357Z,42.53
2018-03-17T20:03:48.427Z,47.97
2018-03-17T20:06:16.850Z,64.90
2018-03-17T20:08:45.335Z,31.43
2018-03-17T20:11:13.827Z,54.63
2018-03-17T20:13:43.168Z,52.43
2018-03-17T20:16:11.622Z,55.70
2018-03-17T20:18:40.143Z,51.37
2018-03-17T20:21:08.534Z,62.10
2018-03-17T20:26:11.827Z,58.57
2018-03-17T20:28:40.318Z,50.30
2018-03-17T20:31:08.863Z,51.60
2018-03-17T20:33:37.598Z,61.27
2018-03-17T20:36:06.080Z,60.17
2018-03-17T20:38:34.617Z,49.10
2018-03-17T20:41:05.072Z,72.87
2018-03-17T20:43:33.447Z,56.53
2018-03-17T20:46:01.897Z,61.37
2018-03-17T20:48:30.349Z,66.60
2018-03-17T20:50:59.972Z,65.27
2018-03-17T20:53:28.422Z,59.20
2018-03-17T20:55:59.815Z,57.63
2018-03-17T21:03:34.915Z,74.10
2018-03-17T21:08:36.573Z,64.67
2018-03-17T21:13:42.047Z,62.90
2018-03-17T21:18:48.351Z,35.20
2018-03-17T21:21:17.526Z,61.23
2018-03-17T21:23:46.649Z,56.80
2018-03-17T21:33:53.431Z,45.23
2018-03-17T21:36:21.913Z,44.30
2018-03-17T21:38:50.516Z,48.50
2018-03-17T21:41:19.289Z,56.53
2018-03-17T21:43:49.229Z,55.50
2018-03-17T21:46:17.696Z,65.70
2018-03-17T21:48:46.117Z,48.87
2018-03-17T21:51:14.613Z,58.60
2018-03-17T21:53:43.025Z,53.13
2018-03-17T21:56:13.125Z,59.83
2018-03-17T21:58:42.302Z,52.20
2018-03-17T22:01:10.892Z,53.80
2018-03-17T22:06:13.618Z,56.50
2018-03-17T22:08:42.010Z,55.03
2018-03-17T22:11:10.388Z,47.67
2018-03-17T22:13:39.305Z,63.60
2018-03-17T22:16:08.479Z,75.07
2018-03-17T22:18:37.197Z,84.93
2018-03-17T22:21:05.665Z,77.73
2018-03-17T22:23:34.033Z,72.03
2018-03-17T22:26:03.098Z,56.23
2018-03-17T22:28:31.571Z,66.17
2018-03-17T22:31:00.793Z,61.40
2018-03-17T22:33:29.278Z,49.20
2018-03-17T22:35:57.737Z,32.60
2018-03-17T22:38:26.169Z,78.97
2018-03-17T22:40:54.531Z,66.63
2018-03-17T22:43:22.946Z,57.10
2018-03-17T22:45:51.730Z,49.17
2018-03-17T22:48:20.365Z,63.07
2018-03-17T22:50:48.794Z,56.60
2018-03-17T22:55:51.573Z,66.63
2018-03-17T22:58:20.609Z,61.37
2018-03-17T23:00:48.977Z,63.63
2018-03-17T23:03:18.106Z,65.13
2018-03-17T23:05:46.835Z,60.23
2018-03-17T23:08:15.879Z,63.20
2018-03-17T23:10:45.330Z,46.37
2018-03-17T23:13:13.791Z,61.67
2018-03-17T23:15:42.129Z,62.60
2018-03-17T23:18:11.009Z,67.70
2018-03-17T23:20:39.446Z,68.47
2018-03-17T23:23:08.162Z,66.43
2018-03-17T23:25:36.525Z,66.83
2018-03-17T23:28:04.994Z,59.70
2018-03-17T23:30:33.368Z,58.87
2018-03-17T23:33:02.107Z,38.73
2018-03-17T23:35:30.758Z,33.70
2018-03-17T23:38:00.935Z,42.50
2018-03-17T23:40:29.679Z,76.47
2018-03-17T23:42:59.157Z,59.83
2018-03-17T23:45:28.654Z,55.63
2018-03-17T23:48:01.031Z,69.97
2018-03-17T23:50:29.524Z,68.77
2018-03-17T23:55:30.371Z,67.17
2018-03-17T23:57:58.697Z,57.87
